Time;durP1;ratioP1;P1;durP2;ratioP2;P2;SDS_P1;SDS_P2;PMS_P1;PMS_P2;Temp;Humidity;BMP_temperature;BMP_pressure;BME280_temperature;BME280_humidity;BME280_pressure;Samples;Min_cycle;Max_cycle;Signal;HPM_P1;HPM_P2
2023/07/20 00:01:28;;;;;;;3.97;3.17;;;19.30;1.00;;;;;;5135647;27;20466;-46
2023/07/20 00:03:56;;;;;;;4.57;2.50;;;19.30;1.00;;;;;;5136459;27;20190;-44
2023/07/20 00:06:23;;;;;;;3.90;2.90;;;19.30;1.00;;;;;;5118472;27;20194;-46
2023/07/20 00:08:49;;;;;;;3.20;2.90;;;19.30;1.00;;;;;;5136748;27;20421;-45
2023/07/20 00:11:15;;;;;;;3.20;2.90;;;19.20;1.00;;;;;;5135860;27;20440;-48
2023/07/20 00:13:40;;;;;;;3.53;2.53;;;19.20;1.00;;;;;;5135453;27;20193;-46
2023/07/20 00:16:06;;;;;;;4.00;3.27;;;19.20;1.00;;;;;;5136298;27;20529;-44
2023/07/20 00:18:32;;;;;;;2.93;2.63;;;19.10;1.00;;;;;;5136120;27;20270;-44
2023/07/20 00:20:59;;;;;;;4.80;3.33;;;19.00;1.00;;;;;;5136362;27;20489;-44
2023/07/20 00:23:25;;;;;;;4.90;3.57;;;19.00;1.00;;;;;;5136192;27;20171;-50
2023/07/20 00:25:51;;;;;;;5.17;3.33;;;19.00;1.00;;;;;;5136004;27;20862;-44
2023/07/20 00:28:17;;;;;;;3.13;2.73;;;18.90;1.00;;;;;;5136008;27;20401;-46
2023/07/20 00:30:42;;;;;;;4.23;2.87;;;18.90;1.00;;;;;;5136147;27;20203;-45
2023/07/20 00:33:10;;;;;;;3.03;2.63;;;18.80;1.00;;;;;;5133997;27;20194;-45
2023/07/20 00:35:37;;;;;;;3.27;2.93;;;18.70;1.00;;;;;;5134088;28;20194;-45
2023/07/20 00:38:03;;;;;;;4.77;3.20;;;18.70;1.00;;;;;;5134464;28;20424;-46
2023/07/20 00:40:36;;;;;;;4.73;3.63;;;18.70;1.00;;;;;;5116297;28;20592;-42
2023/07/20 00:43:01;;;;;;;4.80;3.30;;;18.70;1.00;;;;;;5135451;28;20408;-46
2023/07/20 00:45:27;;;;;;;4.10;3.17;;;18.70;1.00;;;;;;5135149;28;20436;-44
2023/07/20 00:47:52;;;;;;;4.47;3.13;;;18.70;1.00;;;;;;5135336;28;20175;-46
2023/07/20 00:50:18;;;;;;;4.10;3.10;;;18.70;1.00;;;;;;5135784;28;20186;-45
2023/07/20 00:52:44;;;;;;;3.57;3.27;;;18.60;1.00;;;;;;5116618;28;20210;-44
2023/07/20 00:55:10;;;;;;;3.90;3.43;;;18.60;1.00;;;;;;5135174;28;20194;-46
2023/07/20 00:57:35;;;;;;;3.80;3.37;;;18.60;1.00;;;;;;5132864;28;20269;-46
2023/07/20 01:00:02;;;;;;;3.17;2.87;;;18.60;1.00;;;;;;5134646;28;20566;-47
2023/07/20 01:02:27;;;;;;;5.23;2.70;;;18.60;1.00;;;;;;5136416;28;20459;-46
2023/07/20 01:04:53;;;;;;;4.07;3.67;;;18.50;1.00;;;;;;5133444;28;20428;-46
2023/07/20 01:07:35;;;;;;;4.47;3.17;;;18.40;1.00;;;;;;5115008;28;20271;-43
2023/07/20 01:10:09;;;;;;;3.37;3.07;;;18.40;1.00;;;;;;5115109;28;20235;-44
2023/07/20 01:12:41;;;;;;;5.83;3.40;;;18.40;1.00;;;;;;5114671;28;20424;-46
2023/07/20 01:15:08;;;;;;;4.00;3.43;;;18.40;1.00;;;;;;5112146;28;20432;-45
2023/07/20 01:17:34;;;;;;;3.73;3.20;;;18.40;1.00;;;;;;5117018;28;20738;-46
2023/07/20 01:20:00;;;;;;;5.03;3.00;;;18.30;1.00;;;;;;5131554;28;20897;-46
2023/07/20 01:22:34;;;;;;;4.50;2.93;;;18.30;1.00;;;;;;5133322;28;20656;-45
2023/07/20 01:25:47;;;;;;;3.87;3.40;;;18.20;1.00;;;;;;5133865;28;20523;-48
2023/07/20 01:28:21;;;;;;;3.47;2.87;;;18.20;1.00;;;;;;5049873;28;20455;-44
2023/07/20 01:31:19;;;;;;;3.93;2.80;;;18.20;1.00;;;;;;5121512;28;20420;-44
2023/07/20 01:33:46;;;;;;;3.63;2.80;;;18.20;1.00;;;;;;5117075;28;20512;-44
2023/07/20 01:36:12;;;;;;;3.37;2.67;;;18.10;1.00;;;;;;5100666;28;20698;-46
2023/07/20 01:38:38;;;;;;;3.47;3.07;;;18.10;1.00;;;;;;5099805;27;20459;-46
2023/07/20 01:41:04;;;;;;;3.63;3.13;;;18.00;1.00;;;;;;5103041;27;20458;-43
2023/07/20 01:43:29;;;;;;;3.60;2.97;;;18.00;1.00;;;;;;5119385;27;20529;-44
2023/07/20 01:45:55;;;;;;;5.23;3.10;;;17.90;1.00;;;;;;5139560;27;20227;-44
2023/07/20 01:48:20;;;;;;;4.70;3.40;;;17.80;1.00;;;;;;5138993;27;20545;-44
2023/07/20 01:50:46;;;;;;;4.80;3.33;;;17.80;1.00;;;;;;5139281;27;20320;-44
2023/07/20 01:53:12;;;;;;;5.33;3.47;;;17.70;1.00;;;;;;5138774;27;20645;-44
2023/07/20 01:55:37;;;;;;;3.87;3.03;;;17.70;1.00;;;;;;5138968;27;20486;-46
2023/07/20 01:58:03;;;;;;;4.17;3.50;;;17.60;1.00;;;;;;5139237;27;20515;-44
2023/07/20 02:00:29;;;;;;;3.70;3.40;;;17.60;1.00;;;;;;5138566;27;20214;-44
2023/07/20 02:02:54;;;;;;;3.60;3.30;;;17.60;1.00;;;;;;5138197;27;20183;-44
2023/07/20 02:05:20;;;;;;;3.73;3.17;;;17.60;1.00;;;;;;5129225;27;20241;-44
2023/07/20 02:07:46;;;;;;;3.43;2.93;;;17.60;1.00;;;;;;5117725;28;20180;-44
2023/07/20 02:10:12;;;;;;;5.03;3.33;;;17.60;1.00;;;;;;5116439;28;20518;-43
2023/07/20 02:12:37;;;;;;;3.30;3.00;;;17.60;1.00;;;;;;5116215;28;20425;-44
2023/07/20 02:15:03;;;;;;;3.37;2.90;;;17.50;1.00;;;;;;5116424;28;20188;-45
2023/07/20 02:17:29;;;;;;;4.03;2.90;;;17.60;1.00;;;;;;5116268;28;20458;-43
2023/07/20 02:19:57;;;;;;;3.97;2.93;;;17.60;1.00;;;;;;5115756;28;20465;-45
2023/07/20 02:22:23;;;;;;;5.00;3.00;;;17.60;1.00;;;;;;5116542;28;20175;-45
2023/07/20 02:24:49;;;;;;;3.43;2.73;;;17.70;1.00;;;;;;5117020;28;20661;-45
2023/07/20 02:27:14;;;;;;;3.70;3.20;;;17.60;1.00;;;;;;5116758;28;20540;-44
2023/07/20 02:29:41;;;;;;;3.47;2.80;;;17.70;1.00;;;;;;5115896;28;20855;-44
2023/07/20 02:32:07;;;;;;;3.70;3.00;;;17.70;1.00;;;;;;5116384;28;20259;-43
2023/07/20 02:34:33;;;;;;;3.50;2.90;;;17.80;1.00;;;;;;5116394;28;20402;-45
2023/07/20 02:37:00;;;;;;;6.07;3.37;;;17.80;1.00;;;;;;5117117;28;20663;-46
2023/07/20 02:39:27;;;;;;;2.80;2.60;;;17.90;1.00;;;;;;5116282;28;20513;-47
2023/07/20 02:41:53;;;;;;;3.10;2.80;;;17.90;1.00;;;;;;5116183;28;20465;-45
2023/07/20 02:44:20;;;;;;;4.07;2.83;;;17.90;1.00;;;;;;5117105;28;20675;-44
2023/07/20 02:46:45;;;;;;;3.83;3.20;;;17.90;1.00;;;;;;5117578;28;20691;-42
2023/07/20 02:49:11;;;;;;;3.93;3.27;;;17.90;1.00;;;;;;5116661;28;20422;-46
2023/07/20 02:51:37;;;;;;;3.50;3.20;;;17.90;1.00;;;;;;5116748;28;20175;-45
2023/07/20 02:57:25;;;;;;;3.00;2.70;;;17.80;1.00;;;;;;5115329;28;20175;-44
2023/07/20 02:59:50;;;;;;;3.77;3.20;;;17.80;1.00;;;;;;5114354;28;20683;-45
2023/07/20 03:02:16;;;;;;;3.10;2.80;;;17.80;1.00;;;;;;5114954;28;20385;-46
2023/07/20 03:04:41;;;;;;;3.57;2.93;;;17.80;1.00;;;;;;5115669;28;20526;-44
2023/07/20 03:07:07;;;;;;;3.30;2.97;;;17.80;1.00;;;;;;5115051;28;20314;-45
2023/07/20 03:09:33;;;;;;;2.90;2.60;;;17.80;1.00;;;;;;5115833;28;20171;-44
2023/07/20 03:11:59;;;;;;;10.13;3.40;;;17.80;1.00;;;;;;5116685;28;20715;-44
2023/07/20 03:14:24;;;;;;;3.40;2.83;;;17.80;1.00;;;;;;5115430;28;20448;-44
2023/07/20 03:16:50;;;;;;;5.60;3.00;;;17.80;1.00;;;;;;5116862;28;20281;-46
2023/07/20 03:19:16;;;;;;;3.93;3.20;;;17.80;1.00;;;;;;5116975;28;20623;-44
2023/07/20 03:21:42;;;;;;;3.33;2.97;;;17.80;1.00;;;;;;5116307;28;20214;-46
2023/07/20 03:24:08;;;;;;;6.60;3.10;;;17.80;1.00;;;;;;5115735;28;20179;-45
2023/07/20 03:26:35;;;;;;;4.10;3.20;;;17.80;1.00;;;;;;5116250;28;20424;-45
2023/07/20 03:29:01;;;;;;;3.90;3.00;;;17.80;1.00;;;;;;5116088;28;20417;-47
2023/07/20 03:31:26;;;;;;;3.57;3.27;;;17.70;1.00;;;;;;5116320;28;20430;-46
2023/07/20 03:33:52;;;;;;;3.50;3.00;;;17.70;1.00;;;;;;5116489;28;20714;-43
2023/07/20 03:36:18;;;;;;;5.00;3.90;;;17.70;1.00;;;;;;5116133;28;20267;-43
2023/07/20 03:38:43;;;;;;;3.70;2.97;;;17.60;1.00;;;;;;5114860;28;20491;-44
2023/07/20 03:41:09;;;;;;;4.17;3.17;;;17.60;4.00;;;;;;5115062;28;20271;-43
2023/07/20 03:43:35;;;;;;;4.23;2.77;;;17.60;6.40;;;;;;5096957;28;20191;-43
2023/07/20 03:46:00;;;;;;;3.23;2.90;;;17.60;18.00;;;;;;5114654;28;20195;-46
2023/07/20 03:48:26;;;;;;;3.43;3.13;;;17.60;20.20;;;;;;5114955;28;20546;-43
2023/07/20 03:50:53;;;;;;;3.03;2.73;;;17.50;36.70;;;;;;5115225;28;20597;-47
2023/07/20 03:53:19;;;;;;;3.40;3.00;;;17.50;63.00;;;;;;5096719;28;20205;-45
2023/07/20 03:55:49;;;;;;;3.57;3.27;;;17.50;95.40;;;;;;5115112;28;20823;-45
2023/07/20 03:58:15;;;;;;;6.47;3.13;;;17.50;99.90;;;;;;5114973;28;20258;-44
2023/07/20 04:00:44;;;;;;;4.10;3.37;;;17.50;99.90;;;;;;5112578;28;20475;-48
2023/07/20 04:03:10;;;;;;;3.80;3.13;;;17.50;99.90;;;;;;5112020;28;20421;-45
2023/07/20 04:05:35;;;;;;;7.07;4.03;;;17.60;99.90;;;;;;5094236;28;20854;-45
2023/07/20 04:08:01;;;;;;;3.37;3.07;;;17.70;99.90;;;;;;5111927;28;20179;-46
2023/07/20 04:10:27;;;;;;;3.17;2.43;;;17.80;99.90;;;;;;5110187;28;20431;-46
2023/07/20 04:12:52;;;;;;;3.10;2.80;;;17.90;97.40;;;;;;5110335;28;20558;-46
2023/07/20 04:15:18;;;;;;;3.60;3.00;;;18.00;71.30;;;;;;5111753;28;20243;-45
2023/07/20 04:17:45;;;;;;;3.07;2.77;;;18.10;58.90;;;;;;5113931;28;20501;-46
2023/07/20 04:20:10;;;;;;;3.17;2.70;;;18.10;47.90;;;;;;5114513;28;20199;-44
2023/07/20 04:22:36;;;;;;;4.10;2.70;;;18.20;36.90;;;;;;5113782;28;20440;-45
2023/07/20 04:25:03;;;;;;;3.40;3.10;;;18.30;29.70;;;;;;5110090;28;20199;-45
2023/07/20 04:27:29;;;;;;;4.00;2.70;;;18.30;22.30;;;;;;5111305;28;20251;-49
2023/07/20 04:29:54;;;;;;;6.27;3.10;;;18.40;16.50;;;;;;5112078;28;20707;-46
2023/07/20 04:32:20;;;;;;;3.27;2.97;;;18.50;7.30;;;;;;5112100;28;20199;-46
2023/07/20 04:34:45;;;;;;;4.13;2.70;;;18.60;7.40;;;;;;5110893;28;20260;-46
2023/07/20 04:37:11;;;;;;;3.53;3.23;;;18.60;1.70;;;;;;5109062;28;20175;-46
2023/07/20 04:39:37;;;;;;;3.50;3.10;;;18.70;1.00;;;;;;5110889;28;20661;-47
2023/07/20 04:42:03;;;;;;;2.63;2.43;;;18.70;1.00;;;;;;5092992;28;20207;-47
2023/07/20 04:44:28;;;;;;;3.90;2.90;;;18.80;1.00;;;;;;5092919;28;20179;-46
2023/07/20 04:46:54;;;;;;;3.30;2.87;;;18.80;1.00;;;;;;5111917;28;20771;-46
2023/07/20 04:49:19;;;;;;;4.73;3.00;;;18.90;1.00;;;;;;5112818;28;20265;-47
2023/07/20 04:51:45;;;;;;;3.07;2.53;;;18.90;1.00;;;;;;5114067;28;20194;-48
2023/07/20 04:54:11;;;;;;;5.77;3.00;;;19.00;1.00;;;;;;5114127;28;20176;-45
2023/07/20 04:56:37;;;;;;;2.83;2.53;;;19.00;1.00;;;;;;5113734;28;20476;-46
2023/07/20 04:59:02;;;;;;;5.50;3.30;;;19.00;1.00;;;;;;5112078;28;20223;-47
2023/07/20 05:01:28;;;;;;;5.57;3.20;;;19.00;1.00;;;;;;5092400;28;20203;-48
2023/07/20 05:03:53;;;;;;;4.10;3.20;;;18.90;1.00;;;;;;5116177;28;20505;-47
2023/07/20 05:06:19;;;;;;;3.30;2.73;;;18.90;1.00;;;;;;5129543;28;20285;-45
2023/07/20 05:08:45;;;;;;;3.43;3.13;;;18.90;1.00;;;;;;5133386;28;20320;-47
2023/07/20 05:11:11;;;;;;;5.80;3.20;;;18.80;1.00;;;;;;5112941;28;20226;-47
2023/07/20 05:13:37;;;;;;;2.80;2.57;;;18.80;1.00;;;;;;5128432;27;20178;-45
2023/07/20 05:16:03;;;;;;;3.40;2.73;;;18.80;1.00;;;;;;5132321;27;20436;-47
2023/07/20 05:18:29;;;;;;;3.73;3.33;;;18.80;1.00;;;;;;5134853;27;20423;-45
2023/07/20 05:20:55;;;;;;;3.17;2.80;;;18.80;1.00;;;;;;5136067;27;20209;-47
2023/07/20 05:23:21;;;;;;;4.63;3.60;;;18.90;1.00;;;;;;5134132;27;20164;-47
2023/07/20 05:25:47;;;;;;;3.13;2.77;;;19.00;1.00;;;;;;5134851;27;20170;-46
2023/07/20 05:28:12;;;;;;;5.53;3.17;;;19.00;1.00;;;;;;5134618;27;20424;-47
2023/07/20 05:30:39;;;;;;;8.83;3.50;;;19.00;1.00;;;;;;5135384;27;20424;-45
2023/07/20 05:33:05;;;;;;;3.30;2.80;;;19.10;1.00;;;;;;5135527;27;20227;-47
2023/07/20 05:35:30;;;;;;;4.27;3.03;;;19.10;1.00;;;;;;5134097;27;20680;-48
2023/07/20 05:37:56;;;;;;;5.93;2.90;;;19.10;1.00;;;;;;5123822;27;20454;-44
2023/07/20 05:40:22;;;;;;;6.33;2.80;;;19.10;1.00;;;;;;5137862;27;20203;-50
2023/07/20 05:42:51;;;;;;;7.87;3.30;;;19.10;1.00;;;;;;5126728;27;20272;-45
2023/07/20 05:45:17;;;;;;;5.50;3.50;;;19.10;1.00;;;;;;5114218;28;20170;-47
2023/07/20 05:47:43;;;;;;;6.37;3.13;;;19.20;1.00;;;;;;5114078;28;20485;-46
2023/07/20 05:50:09;;;;;;;5.30;2.90;;;19.20;1.00;;;;;;5111821;28;20691;-47
2023/07/20 05:52:35;;;;;;;4.97;3.43;;;19.20;1.00;;;;;;5094424;28;20207;-46
2023/07/20 05:55:00;;;;;;;5.93;3.10;;;19.10;1.00;;;;;;5115664;28;20432;-48
2023/07/20 05:57:26;;;;;;;8.63;2.83;;;19.00;1.00;;;;;;5114615;28;20554;-49
2023/07/20 05:59:52;;;;;;;5.20;3.30;;;19.10;1.00;;;;;;5114606;28;20194;-46
2023/07/20 06:02:17;;;;;;;4.67;2.90;;;19.00;1.00;;;;;;5115583;28;20201;-49
2023/07/20 06:04:43;;;;;;;10.23;3.20;;;19.20;1.00;;;;;;5097918;28;20171;-49
2023/07/20 06:07:11;;;;;;;8.60;3.50;;;19.00;1.00;;;;;;5097331;28;20468;-48
2023/07/20 06:09:37;;;;;;;2.87;2.57;;;19.00;1.00;;;;;;5080937;28;20479;-58
2023/07/20 06:12:03;;;;;;;5.73;2.60;;;19.10;1.00;;;;;;5095994;28;20497;-47
2023/07/20 06:14:28;;;;;;;4.93;2.97;;;19.10;1.00;;;;;;5112428;28;20199;-49
2023/07/20 06:16:54;;;;;;;3.97;3.03;;;19.10;1.00;;;;;;5111979;28;20469;-47
2023/07/20 06:19:20;;;;;;;4.50;2.87;;;19.10;1.00;;;;;;5112129;28;20176;-47
2023/07/20 06:21:45;;;;;;;3.70;2.43;;;19.20;1.00;;;;;;5111713;28;20291;-49
2023/07/20 06:24:11;;;;;;;3.50;3.00;;;19.20;1.00;;;;;;5111534;28;20250;-45
2023/07/20 06:26:39;;;;;;;3.70;3.03;;;19.20;1.00;;;;;;5112140;28;20172;-46
2023/07/20 06:29:09;;;;;;;5.57;2.73;;;19.30;1.00;;;;;;5113382;28;20194;-45
2023/07/20 06:31:35;;;;;;;4.57;2.77;;;19.30;1.00;;;;;;5112543;28;20425;-45
2023/07/20 06:34:01;;;;;;;3.07;2.77;;;19.40;1.00;;;;;;5113986;28;20849;-45
2023/07/20 06:36:26;;;;;;;7.03;3.20;;;19.40;1.00;;;;;;5112039;28;20540;-46
2023/07/20 06:38:52;;;;;;;4.03;2.60;;;19.30;1.00;;;;;;5110532;28;20180;-46
2023/07/20 06:41:18;;;;;;;3.40;2.90;;;19.40;1.00;;;;;;5112244;28;20208;-45
2023/07/20 06:43:44;;;;;;;3.70;3.03;;;19.60;1.00;;;;;;5112073;28;20767;-46
2023/07/20 06:46:10;;;;;;;4.60;3.10;;;19.70;1.00;;;;;;5112880;28;20417;-47
2023/07/20 06:48:36;;;;;;;3.73;3.30;;;19.90;1.00;;;;;;5094048;28;20172;-46
2023/07/20 06:51:02;;;;;;;3.17;2.83;;;20.00;1.00;;;;;;5112156;28;20451;-47
2023/07/20 06:53:28;;;;;;;4.90;2.77;;;20.30;1.00;;;;;;5112607;28;20395;-48
2023/07/20 06:55:56;;;;;;;5.40;3.23;;;20.40;1.00;;;;;;5110474;28;20822;-47
2023/07/20 06:58:22;;;;;;;4.80;3.10;;;20.60;1.00;;;;;;5093995;28;20478;-47
2023/07/20 07:00:48;;;;;;;4.90;3.17;;;20.60;1.00;;;;;;5093708;28;20473;-47
2023/07/20 07:03:14;;;;;;;4.73;2.80;;;20.60;1.00;;;;;;5112349;28;20413;-49
2023/07/20 07:05:39;;;;;;;5.20;3.90;;;20.80;1.00;;;;;;5112732;28;20558;-46
2023/07/20 07:08:05;;;;;;;3.50;3.00;;;20.70;1.00;;;;;;5112254;28;20299;-49
2023/07/20 07:10:32;;;;;;;3.50;3.03;;;20.90;1.00;;;;;;5113774;28;20179;-46
2023/07/20 07:12:57;;;;;;;4.03;3.33;;;20.90;1.00;;;;;;5120376;27;20869;-46
2023/07/20 07:15:23;;;;;;;4.47;2.60;;;21.00;1.00;;;;;;5116283;27;20437;-46
2023/07/20 07:17:48;;;;;;;6.33;3.27;;;21.10;1.00;;;;;;5115432;27;20407;-47
2023/07/20 07:20:14;;;;;;;7.70;3.53;;;21.20;1.00;;;;;;5116879;27;20228;-47
2023/07/20 07:22:43;;;;;;;5.93;3.20;;;21.20;1.00;;;;;;5117106;27;20174;-46
2023/07/20 07:25:09;;;;;;;5.33;3.07;;;21.20;1.00;;;;;;5134262;27;20477;-49
2023/07/20 07:27:35;;;;;;;3.10;2.67;;;21.30;1.00;;;;;;5136453;27;20471;-47
2023/07/20 07:30:01;;;;;;;6.10;3.50;;;21.20;1.00;;;;;;5136011;27;20447;-46
2023/07/20 07:32:26;;;;;;;4.73;3.53;;;21.10;1.00;;;;;;5136006;27;20167;-47
2023/07/20 07:34:52;;;;;;;4.00;3.53;;;21.40;1.00;;;;;;5134760;27;20392;-48
2023/07/20 07:37:19;;;;;;;3.97;3.50;;;21.70;1.00;;;;;;5115536;27;20526;-48
2023/07/20 07:39:45;;;;;;;5.23;3.70;;;21.80;1.00;;;;;;5133506;27;20174;-48
2023/07/20 07:42:12;;;;;;;7.47;4.03;;;22.00;1.00;;;;;;5116052;27;20468;-47
2023/07/20 07:44:38;;;;;;;3.77;3.37;;;22.00;1.00;;;;;;5135565;27;20540;-45
2023/07/20 07:47:03;;;;;;;4.00;3.00;;;22.10;1.00;;;;;;5116830;27;20481;-48
2023/07/20 07:49:29;;;;;;;6.00;3.17;;;22.10;1.00;;;;;;5116600;27;20172;-46
2023/07/20 07:51:55;;;;;;;5.27;3.10;;;22.00;1.00;;;;;;5134971;27;20269;-48
2023/07/20 07:54:20;;;;;;;5.67;3.30;;;21.80;1.00;;;;;;5134138;27;20483;-48
2023/07/20 07:56:46;;;;;;;6.77;3.40;;;21.70;1.00;;;;;;5132500;27;20637;-48
2023/07/20 07:59:12;;;;;;;5.40;3.50;;;21.80;1.00;;;;;;5133185;27;20222;-45
2023/07/20 08:01:38;;;;;;;5.63;4.17;;;21.70;1.00;;;;;;5133504;27;20301;-47
2023/07/20 08:04:03;;;;;;;5.03;3.70;;;21.70;1.00;;;;;;5133406;27;20194;-47
2023/07/20 08:06:29;;;;;;;4.10;3.60;;;21.90;1.00;;;;;;5098852;27;20561;-48
2023/07/20 08:08:55;;;;;;;7.83;3.47;;;22.00;1.00;;;;;;5132936;27;20698;-48
2023/07/20 08:11:20;;;;;;;9.03;3.47;;;22.40;1.00;;;;;;5133120;27;20730;-48
2023/07/20 08:13:46;;;;;;;4.30;3.77;;;22.60;1.00;;;;;;5115028;27;20203;-48
2023/07/20 08:16:12;;;;;;;4.60;3.67;;;22.70;1.00;;;;;;5134316;27;20179;-46
2023/07/20 08:18:37;;;;;;;4.60;2.90;;;22.80;1.00;;;;;;5115642;28;20179;-48
2023/07/20 08:21:03;;;;;;;8.13;4.10;;;22.70;1.00;;;;;;5132528;27;20211;-48
2023/07/20 08:23:29;;;;;;;3.70;3.20;;;22.80;1.00;;;;;;5133600;27;20186;-47
2023/07/20 08:25:54;;;;;;;5.00;3.47;;;22.90;1.00;;;;;;5132263;27;20242;-46
2023/07/20 08:28:20;;;;;;;4.00;3.60;;;23.20;1.00;;;;;;5133135;27;20179;-48
2023/07/20 08:30:48;;;;;;;5.30;3.53;;;23.70;1.00;;;;;;5133188;27;20193;-50
2023/07/20 08:33:14;;;;;;;2.83;2.63;;;23.70;1.00;;;;;;5134347;27;20178;-47
2023/07/20 08:35:40;;;;;;;3.87;2.80;;;23.40;1.00;;;;;;5133185;27;20443;-46
2023/07/20 08:38:07;;;;;;;4.80;3.80;;;22.90;1.00;;;;;;5133560;28;20405;-46
2023/07/20 08:40:34;;;;;;;4.70;3.23;;;22.70;1.00;;;;;;5132138;28;20275;-47
2023/07/20 08:43:03;;;;;;;3.53;3.00;;;23.00;1.00;;;;;;5134586;28;20452;-48
2023/07/20 08:45:29;;;;;;;3.70;3.30;;;23.40;1.00;;;;;;5134086;28;20454;-47
2023/07/20 08:47:56;;;;;;;3.73;3.10;;;23.70;1.00;;;;;;5134095;28;20429;-46
2023/07/20 08:50:22;;;;;;;3.30;2.77;;;23.90;1.00;;;;;;5119487;27;20404;-46
2023/07/20 08:52:50;;;;;;;3.60;3.17;;;23.90;1.00;;;;;;5136064;27;20428;-45
2023/07/20 08:55:15;;;;;;;4.50;2.93;;;23.70;1.00;;;;;;5119617;27;20534;-48
2023/07/20 08:57:45;;;;;;;3.43;3.13;;;23.30;1.00;;;;;;5119074;27;20571;-49
2023/07/20 09:00:12;;;;;;;4.10;3.33;;;23.10;1.00;;;;;;5136790;27;20203;-46
2023/07/20 09:02:42;;;;;;;6.70;3.70;;;23.30;1.00;;;;;;5134394;27;20527;-48
2023/07/20 09:05:09;;;;;;;3.60;3.23;;;23.20;1.00;;;;;;5132810;27;20972;-47
2023/07/20 09:07:36;;;;;;;4.00;3.00;;;23.20;1.00;;;;;;5135063;27;20416;-47
2023/07/20 09:10:05;;;;;;;3.80;2.90;;;23.10;1.00;;;;;;5117424;27;20591;-47
2023/07/20 09:12:32;;;;;;;6.13;3.10;;;23.00;1.00;;;;;;5132753;27;20418;-46
2023/07/20 09:14:58;;;;;;;4.10;3.00;;;22.90;1.00;;;;;;5131597;27;20746;-47
2023/07/20 09:17:26;;;;;;;2.90;2.70;;;23.30;1.00;;;;;;5131699;27;20811;-46
2023/07/20 09:19:51;;;;;;;3.40;2.83;;;23.50;1.00;;;;;;5133692;27;20400;-48
2023/07/20 09:22:17;;;;;;;3.10;2.70;;;23.60;1.00;;;;;;5117795;27;20447;-46
2023/07/20 09:24:43;;;;;;;4.83;2.73;;;23.70;1.00;;;;;;5134154;27;20266;-47
2023/07/20 09:27:10;;;;;;;4.00;2.57;;;23.70;1.00;;;;;;5134086;27;20210;-47
2023/07/20 09:29:51;;;;;;;3.03;2.73;;;23.70;1.00;;;;;;5132747;27;20496;-47
2023/07/20 09:32:20;;;;;;;2.93;2.23;;;23.40;1.00;;;;;;5131458;27;20521;-45
2023/07/20 09:34:46;;;;;;;4.30;2.60;;;23.30;1.00;;;;;;5132275;27;20640;-46
2023/07/20 09:37:12;;;;;;;2.90;2.40;;;23.10;1.00;;;;;;5132950;27;20424;-47
2023/07/20 09:39:44;;;;;;;2.40;2.20;;;22.80;1.00;;;;;;5133586;27;20302;-46
2023/07/20 09:42:12;;;;;;;2.87;2.40;;;23.00;1.00;;;;;;5134793;27;20809;-48
2023/07/20 09:44:39;;;;;;;3.20;2.90;;;23.10;1.00;;;;;;5116675;27;20511;-45
2023/07/20 09:47:05;;;;;;;3.20;2.27;;;23.20;1.00;;;;;;5133949;27;20466;-47
2023/07/20 09:49:31;;;;;;;3.57;2.20;;;23.50;1.00;;;;;;5132804;27;20725;-48
2023/07/20 09:51:58;;;;;;;3.40;2.33;;;24.10;1.00;;;;;;5132898;27;20463;-48
2023/07/20 09:54:24;;;;;;;3.00;2.77;;;24.80;1.00;;;;;;5115801;27;20181;-48
2023/07/20 09:56:52;;;;;;;2.93;2.40;;;25.40;1.00;;;;;;5116217;27;20425;-47
2023/07/20 09:59:18;;;;;;;3.93;2.53;;;25.70;1.00;;;;;;5115825;27;20237;-49
2023/07/20 10:01:45;;;;;;;4.17;2.53;;;26.30;1.00;;;;;;5134324;27;20807;-52
2023/07/20 10:04:12;;;;;;;2.30;2.10;;;27.10;1.00;;;;;;5134005;27;20807;-46
2023/07/20 10:06:41;;;;;;;3.93;2.23;;;27.20;1.00;;;;;;5114581;27;20453;-45
2023/07/20 10:09:09;;;;;;;3.47;2.10;;;27.40;1.00;;;;;;5135123;27;20686;-47
2023/07/20 10:11:37;;;;;;;2.83;2.53;;;27.10;1.00;;;;;;5116619;27;21828;-45
2023/07/20 10:14:06;;;;;;;3.13;2.53;;;26.70;1.00;;;;;;5115892;27;20408;-47
2023/07/20 10:16:35;;;;;;;2.50;2.07;;;26.30;1.00;;;;;;5135632;27;20489;-46
2023/07/20 10:19:13;;;;;;;3.10;2.30;;;26.00;1.00;;;;;;5134985;27;20416;-51
2023/07/20 10:21:42;;;;;;;2.47;2.27;;;26.10;1.00;;;;;;5133744;27;20965;-48
2023/07/20 10:24:09;;;;;;;4.47;2.43;;;26.20;1.00;;;;;;5114527;27;20436;-47
2023/07/20 10:26:35;;;;;;;3.20;2.47;;;26.20;1.00;;;;;;5115553;27;20568;-48
2023/07/20 10:29:01;;;;;;;2.47;2.27;;;26.60;1.00;;;;;;5117032;27;20474;-50
2023/07/20 10:31:28;;;;;;;3.00;2.60;;;27.10;1.00;;;;;;5117551;27;20428;-49
2023/07/20 10:33:56;;;;;;;2.07;1.83;;;26.30;1.00;;;;;;5116367;27;20433;-49
2023/07/20 10:36:29;;;;;;;3.47;2.63;;;26.30;1.00;;;;;;5131064;27;20412;-48
2023/07/20 10:38:57;;;;;;;2.87;2.30;;;26.60;1.00;;;;;;5131581;27;20849;-49
2023/07/20 10:41:37;;;;;;;2.07;1.80;;;25.90;1.00;;;;;;5131226;27;20486;-47
2023/07/20 10:44:07;;;;;;;2.20;1.80;;;26.40;1.00;;;;;;5133310;27;20465;-48
2023/07/20 10:46:44;;;;;;;2.00;1.77;;;27.10;1.00;;;;;;5132095;27;20424;-48
2023/07/20 10:49:10;;;;;;;2.70;2.10;;;27.90;1.00;;;;;;5130270;27;20675;-50
2023/07/20 10:51:41;;;;;;;3.97;2.43;;;28.60;1.00;;;;;;5130697;27;20544;-47
2023/07/20 10:54:29;;;;;;;2.43;2.20;;;28.50;1.00;;;;;;5132922;27;20524;-48
2023/07/20 10:57:21;;;;;;;2.77;2.57;;;28.00;1.00;;;;;;5130984;27;20468;-50
2023/07/20 10:59:47;;;;;;;2.33;2.13;;;27.90;1.00;;;;;;5131793;27;20756;-48
2023/07/20 11:02:13;;;;;;;2.37;2.10;;;28.40;1.00;;;;;;5132267;27;20684;-49
2023/07/20 11:04:42;;;;;;;6.90;2.20;;;29.00;1.00;;;;;;5133127;27;20319;-48
2023/07/20 11:07:08;;;;;;;2.50;2.30;;;29.10;1.00;;;;;;5113835;27;20175;-50
2023/07/20 11:09:37;;;;;;;2.13;1.90;;;29.60;1.00;;;;;;5129995;27;20499;-50
2023/07/20 11:12:14;;;;;;;2.70;2.30;;;29.00;1.00;;;;;;5127975;27;20218;-48
2023/07/20 11:14:53;;;;;;;3.50;2.10;;;27.80;1.00;;;;;;5129353;27;20428;-48
2023/07/20 11:17:22;;;;;;;3.20;2.57;;;27.30;1.00;;;;;;5131333;27;20619;-47
2023/07/20 11:19:56;;;;;;;3.10;2.13;;;26.80;1.00;;;;;;5114932;27;20547;-49
2023/07/20 11:22:22;;;;;;;2.40;1.77;;;27.20;1.00;;;;;;5129870;27;20426;-50
2023/07/20 11:24:49;;;;;;;2.90;1.80;;;27.30;1.00;;;;;;5133601;27;20442;-48
2023/07/20 11:27:15;;;;;;;2.40;2.13;;;27.10;1.00;;;;;;5112574;27;20473;-51
2023/07/20 11:29:41;;;;;;;2.63;2.00;;;26.70;1.00;;;;;;5112487;27;20760;-49
2023/07/20 11:32:07;;;;;;;3.33;2.10;;;26.60;1.00;;;;;;5131357;27;20785;-49
2023/07/20 11:34:34;;;;;;;3.13;2.20;;;26.60;1.00;;;;;;5133184;27;20320;-47
2023/07/20 11:37:00;;;;;;;3.00;2.10;;;26.60;1.00;;;;;;5132591;27;20767;-50
2023/07/20 11:39:26;;;;;;;5.37;2.07;;;26.60;1.00;;;;;;5131249;27;20530;-47
2023/07/20 11:42:00;;;;;;;2.40;1.93;;;27.20;1.00;;;;;;5130661;27;20468;-46
2023/07/20 11:44:29;;;;;;;3.20;1.90;;;28.00;1.00;;;;;;5115078;27;20167;-53
2023/07/20 11:47:07;;;;;;;2.03;1.80;;;28.90;1.00;;;;;;5134115;27;20401;-50
2023/07/20 11:49:40;;;;;;;7.00;2.67;;;29.80;1.00;;;;;;5133464;27;20902;-47
2023/07/20 11:52:10;;;;;;;2.50;2.03;;;30.50;1.00;;;;;;5133924;27;20435;-49
2023/07/20 11:54:40;;;;;;;2.73;2.50;;;30.20;1.00;;;;;;5128957;27;20448;-48
2023/07/20 11:57:15;;;;;;;2.90;2.70;;;30.00;1.00;;;;;;5111833;28;20422;-51
2023/07/20 12:00:00;;;;;;;3.87;2.40;;;29.70;1.00;;;;;;5112362;28;20488;-49
2023/07/20 12:02:30;;;;;;;2.50;1.80;;;29.70;1.00;;;;;;5112960;28;20726;-52
2023/07/20 12:04:56;;;;;;;2.70;2.40;;;30.30;1.00;;;;;;5112838;28;20787;-48
2023/07/20 12:07:22;;;;;;;2.47;2.10;;;30.90;1.00;;;;;;5111222;28;20720;-49
2023/07/20 12:10:15;;;;;;;3.50;2.37;;;31.60;1.00;;;;;;5110436;28;20728;-49
2023/07/20 12:12:42;;;;;;;2.90;1.90;;;31.70;1.00;;;;;;5109786;28;20418;-48
2023/07/20 12:15:20;;;;;;;2.53;2.33;;;31.70;1.00;;;;;;5109933;28;20891;-49
2023/07/20 12:17:46;;;;;;;3.67;2.50;;;32.00;1.00;;;;;;5111610;28;20677;-48
2023/07/20 12:20:12;;;;;;;2.20;2.00;;;31.70;1.00;;;;;;5111880;28;20372;-51
2023/07/20 12:22:40;;;;;;;2.33;1.90;;;30.90;1.00;;;;;;5110272;28;20554;-50
2023/07/20 12:25:07;;;;;;;2.33;2.00;;;30.00;1.00;;;;;;5112083;28;20392;-52
2023/07/20 12:27:35;;;;;;;3.00;1.80;;;29.30;1.00;;;;;;5113915;28;20873;-49
2023/07/20 12:30:02;;;;;;;2.00;1.80;;;28.10;1.00;;;;;;5113921;28;20433;-48
2023/07/20 12:32:32;;;;;;;2.43;2.23;;;27.60;1.00;;;;;;5093889;28;20448;-48
2023/07/20 12:35:00;;;;;;;2.90;2.43;;;27.40;1.00;;;;;;5109459;28;20442;-50
2023/07/20 12:37:26;;;;;;;2.90;2.43;;;27.90;1.00;;;;;;5109782;28;20453;-50
2023/07/20 12:39:52;;;;;;;2.57;2.17;;;29.00;1.00;;;;;;5113545;28;20673;-49
2023/07/20 12:42:18;;;;;;;4.00;2.43;;;30.00;1.00;;;;;;5112872;28;20567;-50
2023/07/20 12:44:43;;;;;;;2.77;1.90;;;31.10;1.00;;;;;;5111543;28;20400;-51
2023/07/20 12:47:09;;;;;;;2.93;2.03;;;31.70;1.00;;;;;;5112290;28;20171;-50
2023/07/20 12:49:35;;;;;;;2.17;1.57;;;32.30;1.00;;;;;;5110639;28;20237;-47
2023/07/20 12:52:00;;;;;;;2.57;2.10;;;32.60;1.00;;;;;;5111047;28;20198;-49
2023/07/20 12:54:26;;;;;;;3.43;1.90;;;32.60;1.00;;;;;;5111878;28;20210;-49
2023/07/20 12:56:51;;;;;;;2.43;2.20;;;32.30;1.00;;;;;;5111081;28;20508;-48
2023/07/20 12:59:17;;;;;;;4.40;2.57;;;32.40;1.00;;;;;;5112470;28;20292;-49